Time;durP1;ratioP1;P1;durP2;ratioP2;P2;SDS_P1;SDS_P2;PMS_P1;PMS_P2;Temp;Humidity;BMP_temperature;BMP_pressure;BME280_temperature;BME280_humidity;BME280_pressure;Samples;Min_cycle;Max_cycle;Signal;HPM_P1;HPM_P2
2021/05/01 00:01:17;;;;;;;2.67;1.80;;;;;;;2.29;74.40;101446.75;4828157;29;20045;-77
2021/05/01 00:03:43;;;;;;;2.70;1.67;;;;;;;2.24;74.30;101443.63;4826641;29;20034;-78
2021/05/01 00:06:08;;;;;;;3.08;1.60;;;;;;;2.17;74.20;101437.16;4811050;29;20078;-78
2021/05/01 00:08:34;;;;;;;2.67;1.60;;;;;;;2.09;74.46;101443.09;4827901;29;20030;-77
2021/05/01 00:11:01;;;;;;;2.30;1.38;;;;;;;2.03;74.52;101443.63;4812047;29;20038;-78
2021/05/01 00:13:33;;;;;;;3.30;1.40;;;;;;;1.98;74.51;101438.66;4841487;29;20037;-78
2021/05/01 00:16:00;;;;;;;4.03;1.70;;;;;;;1.93;74.54;101437.38;4843741;29;20034;-77
2021/05/01 00:18:26;;;;;;;2.22;1.63;;;;;;;1.87;74.74;101442.22;4835371;29;20093;-78
2021/05/01 00:20:52;;;;;;;1.80;1.30;;;;;;;1.84;74.92;101447.78;4843111;29;20112;-77
2021/05/01 00:23:17;;;;;;;1.80;1.20;;;;;;;1.81;74.88;101445.38;4841282;29;20476;-77
2021/05/01 00:25:43;;;;;;;1.40;1.30;;;;;;;1.76;74.93;101444.94;4827978;29;20061;-77
2021/05/01 00:28:10;;;;;;;2.08;1.40;;;;;;;1.72;74.83;101439.97;4796153;29;20410;-77
2021/05/01 00:30:39;;;;;;;2.20;1.30;;;;;;;1.64;74.92;101446.75;4827441;29;20034;-77
2021/05/01 00:33:05;;;;;;;4.38;1.60;;;;;;;1.48;75.16;101426.91;4843627;29;20395;-77
2021/05/01 00:35:31;;;;;;;2.25;1.48;;;;;;;1.56;75.28;101451.88;4857399;29;20030;-77
2021/05/01 00:37:56;;;;;;;2.40;1.20;;;;;;;1.39;75.19;101425.84;4823489;29;20116;-77
2021/05/01 00:40:21;;;;;;;2.97;1.52;;;;;;;1.39;75.19;101432.03;4826503;29;20057;-77
2021/05/01 00:42:47;;;;;;;2.33;1.27;;;;;;;1.39;75.50;101437.31;4841011;29;20477;-77
2021/05/01 00:45:12;;;;;;;2.55;1.42;;;;;;;1.30;75.59;101434.56;4841794;29;20429;-78
2021/05/01 00:47:38;;;;;;;2.97;1.65;;;;;;;1.30;75.47;101438.06;4842707;29;20052;-78
2021/05/01 00:50:04;;;;;;;3.60;1.38;;;;;;;1.00;75.31;101390.16;4829109;29;20553;-78
2021/05/01 00:52:32;;;;;;;3.13;1.80;;;;;;;1.21;75.57;101438.78;4840166;29;20030;-78
2021/05/01 00:54:59;;;;;;;1.95;1.58;;;;;;;0.86;75.32;101378.84;4843122;29;20354;-78
2021/05/01 00:57:25;;;;;;;4.55;1.67;;;;;;;1.09;75.64;101437.97;4842630;29;20049;-77
2021/05/01 00:59:51;;;;;;;4.53;1.70;;;;;;;1.09;75.69;101437.09;4841709;29;20384;-77
2021/05/01 01:02:22;;;;;;;2.47;1.80;;;;;;;1.00;75.79;101432.56;4826296;29;20046;-78
2021/05/01 01:04:48;;;;;;;2.22;1.65;;;;;;;0.99;75.58;101437.00;4824289;29;20439;-78
2021/05/01 01:07:14;;;;;;;1.90;1.50;;;;;;;1.01;76.06;101444.84;4825433;29;20057;-77
2021/05/01 01:09:40;;;;;;;6.03;2.00;;;;;;;0.92;76.17;101441.94;4827213;29;20041;-78
2021/05/01 01:12:06;;;;;;;2.17;1.45;;;;;;;0.92;76.25;101443.75;4827086;29;20598;-77
2021/05/01 01:14:32;;;;;;;2.75;1.65;;;;;;;0.76;75.97;101425.56;4842406;29;20066;-77
2021/05/01 01:16:58;;;;;;;1.92;1.70;;;;;;;-0.15;75.91;101280.88;4830063;29;20121;-77
2021/05/01 01:19:23;;;;;;;3.05;1.70;;;;;;;0.83;76.54;101440.03;4832649;29;20034;-78
2021/05/01 01:21:50;;;;;;;3.00;1.67;;;;;;;0.78;76.36;101447.47;4812676;29;20380;-77
2021/05/01 01:24:17;;;;;;;3.42;2.47;;;;;;;0.57;76.29;101420.88;4850571;29;20041;-78
2021/05/01 01:26:43;;;;;;;3.20;2.40;;;;;;;0.70;76.41;101444.59;4818475;29;20106;-79
2021/05/01 01:29:13;;;;;;;4.88;3.13;;;;;;;0.58;76.98;101427.00;4799336;29;20031;-77
2021/05/01 01:31:38;;;;;;;4.57;2.70;;;;;;;0.53;76.99;101426.50;4826481;29;20034;-77
2021/05/01 01:34:05;;;;;;;4.20;2.30;;;;;;;0.63;77.17;101446.88;4836033;29;20037;-78
2021/05/01 01:36:30;;;;;;;7.88;3.22;;;;;;;0.60;76.98;101447.13;4842822;29;20062;-78
2021/05/01 01:38:56;;;;;;;4.45;2.92;;;;;;;0.56;76.87;101445.66;4822590;29;20433;-78
2021/05/01 01:41:22;;;;;;;6.82;3.20;;;;;;;0.57;77.27;101454.47;4843209;29;20062;-78
2021/05/01 01:43:47;;;;;;;3.55;2.53;;;;;;;0.43;77.14;101434.31;4820314;29;20422;-78
2021/05/01 01:46:13;;;;;;;5.45;3.55;;;;;;;0.46;77.51;101442.03;4859936;29;20418;-78
2021/05/01 01:48:39;;;;;;;7.10;4.13;;;;;;;0.40;77.84;101430.13;4836553;29;20037;-77
2021/05/01 01:51:05;;;;;;;9.75;3.88;;;;;;;0.50;77.34;101454.09;4829949;29;20034;-78
2021/05/01 01:53:31;;;;;;;8.52;4.00;;;;;;;0.55;77.51;101453.72;4829034;29;20089;-78
2021/05/01 01:55:56;;;;;;;14.05;8.57;;;;;;;0.57;77.49;101455.31;4830106;29;20125;-77
2021/05/01 01:58:22;;;;;;;13.35;7.38;;;;;;;0.61;78.10;101458.56;4844052;29;20030;-77
2021/05/01 02:00:51;;;;;;;10.00;6.88;;;;;;;0.60;77.89;101454.22;4828413;29;20417;-78
2021/05/01 02:03:17;;;;;;;6.95;4.93;;;;;;;0.50;78.04;101438.19;4830081;29;20026;-78
2021/05/01 02:05:44;;;;;;;6.22;3.38;;;;;;;0.54;78.00;101454.69;4827922;29;20022;-77
2021/05/01 02:08:11;;;;;;;7.32;4.07;;;;;;;0.50;78.31;101447.91;4852170;29;20042;-78
2021/05/01 02:10:37;;;;;;;8.05;3.70;;;;;;;0.49;78.28;101455.03;4845497;29;20034;-77
2021/05/01 02:13:04;;;;;;;6.82;2.72;;;;;;;0.37;78.15;101450.69;4843918;29;20070;-78
2021/05/01 02:15:31;;;;;;;5.13;2.88;;;;;;;0.34;78.21;101456.22;4844970;29;20441;-77
2021/05/01 02:17:59;;;;;;;4.55;2.20;;;;;;;0.16;78.62;101434.63;4840681;29;20038;-78
2021/05/01 02:20:32;;;;;;;2.20;1.80;;;;;;;0.27;78.62;101460.31;4846188;29;20038;-78
2021/05/01 02:22:58;;;;;;;2.30;1.77;;;;;;;0.06;78.54;101431.81;4826794;29;20039;-78
2021/05/01 02:25:25;;;;;;;3.47;1.92;;;;;;;-0.11;78.48;101408.44;4844697;29;20086;-78
2021/05/01 02:27:51;;;;;;;2.88;1.80;;;;;;;0.17;78.41;101463.63;4841068;29;20369;-77
2021/05/01 02:30:24;;;;;;;3.50;1.80;;;;;;;-0.06;78.55;101432.78;4827382;29;20037;-77
2021/05/01 02:32:50;;;;;;;4.03;2.13;;;;;;;0.09;79.05;101452.75;4827232;29;20050;-77
2021/05/01 02:35:25;;;;;;;12.40;6.07;;;;;;;0.09;78.70;101463.34;4843304;29;20064;-77
2021/05/01 02:37:51;;;;;;;7.15;4.13;;;;;;;0.05;78.89;101463.72;4847366;29;20399;-78
2021/05/01 02:40:18;;;;;;;4.75;3.13;;;;;;;0.02;79.10;101459.47;4846638;29;20037;-78
2021/05/01 02:42:44;;;;;;;4.53;2.40;;;;;;;-0.02;79.03;101458.88;4831960;29;20041;-77
2021/05/01 02:45:13;;;;;;;5.00;2.35;;;;;;;-0.06;79.34;101459.22;4844654;29;20108;-77
2021/05/01 02:47:39;;;;;;;4.75;3.50;;;;;;;-0.24;78.96;101434.97;4843805;29;20032;-78
2021/05/01 02:50:07;;;;;;;3.60;2.50;;;;;;;-0.18;78.87;101455.66;4829670;29;20034;-77
2021/05/01 02:52:32;;;;;;;3.30;2.53;;;;;;;-0.25;79.18;101460.56;4828560;29;20117;-77
2021/05/01 02:54:57;;;;;;;4.47;2.60;;;;;;;-0.41;78.98;101440.66;4828755;29;20141;-78
2021/05/01 02:57:23;;;;;;;4.22;1.83;;;;;;;-0.56;79.34;101421.50;4840175;29;20030;-77
2021/05/01 02:59:48;;;;;;;2.92;1.98;;;;;;;-0.44;79.18;101452.28;4795838;29;20073;-77
2021/05/01 03:02:14;;;;;;;6.63;2.03;;;;;;;-0.52;79.20;101452.03;4810082;29;20049;-78
2021/05/01 03:04:39;;;;;;;2.22;1.90;;;;;;;-0.75;78.60;101424.63;4827278;29;20090;-78
2021/05/01 03:07:04;;;;;;;2.92;1.90;;;;;;;-0.62;78.47;101454.50;4843929;29;20129;-78
2021/05/01 03:09:30;;;;;;;3.63;2.08;;;;;;;-0.72;78.48;101437.59;4827962;29;20034;-78
2021/05/01 03:12:03;;;;;;;2.97;2.00;;;;;;;-0.74;78.08;101450.06;4813525;29;20034;-77
2021/05/01 03:14:28;;;;;;;4.35;1.98;;;;;;;-0.81;78.22;101427.69;4813413;29;20042;-77
2021/05/01 03:16:54;;;;;;;2.17;1.80;;;;;;;-0.77;78.60;101437.06;4810003;29;20090;-77
2021/05/01 03:19:20;;;;;;;6.15;2.80;;;;;;;-0.86;78.49;101443.88;4820826;29;20041;-77
2021/05/01 03:21:47;;;;;;;4.38;2.60;;;;;;;-0.85;78.39;101448.22;4845060;29;20040;-77
2021/05/01 03:24:13;;;;;;;6.18;2.70;;;;;;;-1.04;78.34;101419.59;4843445;29;20038;-77
2021/05/01 03:26:39;;;;;;;5.65;2.50;;;;;;;-0.91;78.56;101440.72;4829039;29;20034;-77
2021/05/01 03:29:05;;;;;;;3.85;2.38;;;;;;;-0.93;78.64;101439.13;4843155;29;20112;-77
2021/05/01 03:31:31;;;;;;;2.28;1.90;;;;;;;-0.87;78.61;101441.34;4828522;29;20493;-77
2021/05/01 03:33:57;;;;;;;4.18;2.20;;;;;;;-0.82;78.64;101449.78;4827441;29;20120;-77
2021/05/01 03:36:22;;;;;;;3.70;2.47;;;;;;;-0.80;78.30;101439.94;4811834;29;20117;-77
2021/05/01 03:38:47;;;;;;;5.18;2.60;;;;;;;-0.76;79.03;101441.44;4794612;29;20034;-77
2021/05/01 03:41:13;;;;;;;4.32;2.58;;;;;;;-0.73;78.93;101447.34;4808998;29;20054;-77
2021/05/01 03:43:38;;;;;;;4.00;2.80;;;;;;;-0.69;79.01;101444.47;4815794;29;20038;-77
2021/05/01 03:46:04;;;;;;;3.83;2.50;;;;;;;-0.81;78.92;101419.75;4844393;29;20038;-77
2021/05/01 03:48:29;;;;;;;2.90;2.35;;;;;;;-0.75;78.84;101420.16;4824837;29;20054;-77
2021/05/01 03:50:56;;;;;;;4.05;2.33;;;;;;;-0.56;78.74;101447.91;4813467;29;20082;-77
2021/05/01 03:53:23;;;;;;;3.22;2.35;;;;;;;-0.20;78.06;101443.50;4827213;29;20372;-78
2021/05/01 03:55:49;;;;;;;3.97;2.60;;;;;;;0.65;76.20;101439.66;4837367;29;20042;-77
2021/05/01 03:58:14;;;;;;;3.17;2.08;;;;;;;1.51;73.55;101450.53;4834024;29;20042;-77
2021/05/01 04:00:40;;;;;;;3.65;1.90;;;;;;;2.10;71.34;101439.47;4808638;29;20048;-77
2021/05/01 04:03:07;;;;;;;3.28;2.05;;;;;;;2.66;69.59;101451.56;4838980;29;20042;-81
2021/05/01 04:05:33;;;;;;;3.50;2.05;;;;;;;3.16;68.22;101444.50;4825254;29;20133;-79
2021/05/01 04:07:58;;;;;;;3.83;2.15;;;;;;;3.62;67.14;101445.72;4823376;29;20098;-80
2021/05/01 04:10:24;;;;;;;4.65;1.92;;;;;;;3.85;66.19;101445.47;4827760;29;20034;-80
2021/05/01 04:12:50;;;;;;;2.40;1.70;;;;;;;3.89;65.18;101398.94;4844449;29;20026;-80
2021/05/01 04:15:15;;;;;;;2.42;1.90;;;;;;;4.26;63.63;101432.81;4829202;29;20345;-79
2021/05/01 04:17:41;;;;;;;2.15;1.77;;;;;;;4.47;63.06;101431.69;4827398;29;20044;-79
2021/05/01 04:20:08;;;;;;;2.55;1.77;;;;;;;4.63;62.16;101428.38;4813013;29;20038;-79
2021/05/01 04:22:33;;;;;;;5.50;1.90;;;;;;;4.88;61.45;101440.25;4827703;29;20077;-78
2021/05/01 04:24:59;;;;;;;3.42;1.65;;;;;;;5.10;60.76;101439.03;4828321;29;20037;-80
2021/05/01 04:27:25;;;;;;;1.95;1.60;;;;;;;5.31;59.94;101446.78;4828445;29;20038;-79
2021/05/01 04:29:51;;;;;;;2.17;1.55;;;;;;;5.55;59.54;101438.19;4833230;29;20067;-79
2021/05/01 04:32:17;;;;;;;5.10;1.67;;;;;;;5.70;58.96;101430.53;4843760;29;20042;-79
2021/05/01 04:34:42;;;;;;;2.90;1.70;;;;;;;5.95;58.01;101434.28;4844126;29;20033;-80
2021/05/01 04:37:09;;;;;;;2.25;1.75;;;;;;;5.97;57.66;101408.25;4841419;29;20124;-80
2021/05/01 04:39:34;;;;;;;1.67;1.40;;;;;;;6.35;57.38;101427.56;4844773;29;20030;-79
2021/05/01 04:42:01;;;;;;;3.63;1.58;;;;;;;6.54;56.97;101430.06;4842843;29;20188;-80
2021/05/01 04:44:30;;;;;;;4.10;1.98;;;;;;;6.77;56.19;101430.34;4811929;29;20536;-79
2021/05/01 04:46:56;;;;;;;4.38;2.00;;;;;;;6.78;55.46;101372.34;4811716;29;20346;-80
2021/05/01 04:49:21;;;;;;;2.83;1.58;;;;;;;7.28;55.17;101422.38;4827101;29;20066;-80
2021/05/01 04:51:48;;;;;;;3.55;1.65;;;;;;;7.46;54.66;101403.53;4827252;29;20101;-79
2021/05/01 04:54:13;;;;;;;2.97;1.80;;;;;;;7.65;54.26;101400.56;4843850;29;20038;-79
2021/05/01 04:56:39;;;;;;;3.75;1.75;;;;;;;7.91;53.87;101410.28;4844029;29;20038;-80
2021/05/01 04:59:06;;;;;;;3.60;1.98;;;;;;;7.92;53.46;101399.41;4828227;29;20030;-79
2021/05/01 05:01:34;;;;;;;2.38;1.45;;;;;;;7.89;54.21;101431.88;4827653;29;20120;-79
2021/05/01 05:04:00;;;;;;;2.20;1.60;;;;;;;7.98;54.49;101440.78;4828769;29;20472;-79
2021/05/01 05:06:25;;;;;;;2.40;1.70;;;;;;;8.43;53.67;101436.75;4810278;29;20077;-79
2021/05/01 05:08:51;;;;;;;4.30;1.50;;;;;;;8.37;53.73;101437.41;4826417;29;20041;-78
2021/05/01 05:11:16;;;;;;;1.98;1.77;;;;;;;8.44;54.11;101441.97;4826465;29;20034;-78
2021/05/01 05:13:43;;;;;;;4.90;1.65;;;;;;;8.24;54.35;101435.22;4811502;29;20067;-80
2021/05/01 05:16:09;;;;;;;2.22;1.63;;;;;;;8.11;54.55;101434.91;4807546;29;20034;-79
2021/05/01 05:18:34;;;;;;;2.97;2.05;;;;;;;7.85;55.49;101427.03;4827021;29;20041;-79
2021/05/01 05:21:00;;;;;;;2.38;1.80;;;;;;;7.89;55.45;101437.25;4829544;29;20089;-79
2021/05/01 05:23:26;;;;;;;2.60;1.90;;;;;;;6.83;58.79;101435.06;4830661;29;20037;-79
2021/05/01 05:25:52;;;;;;;1.90;1.70;;;;;;;6.23;60.80;101443.03;4830442;29;20068;-80
2021/05/01 05:28:19;;;;;;;3.83;1.80;;;;;;;6.02;62.64;101438.00;4846473;29;20465;-79
2021/05/01 05:30:45;;;;;;;2.72;1.90;;;;;;;5.80;63.49;101457.97;4830194;29;20117;-79
2021/05/01 05:33:10;;;;;;;3.13;1.80;;;;;;;5.62;63.85;101454.44;4845975;29;20082;-79
2021/05/01 05:35:35;;;;;;;2.70;1.85;;;;;;;5.69;63.99;101455.53;4829784;29;20045;-79
2021/05/01 05:38:01;;;;;;;2.00;1.60;;;;;;;5.82;64.51;101449.81;4846608;29;20048;-80
2021/05/01 05:40:28;;;;;;;2.22;1.58;;;;;;;6.09;64.45;101460.47;4816177;29;20417;-79
2021/05/01 05:42:53;;;;;;;2.95;1.90;;;;;;;6.38;63.51;101461.19;4832940;29;20062;-80
2021/05/01 05:45:27;;;;;;;1.70;1.50;;;;;;;6.40;63.67;101444.00;4847521;29;20129;-80
2021/05/01 05:47:53;;;;;;;2.15;1.55;;;;;;;6.60;63.48;101466.03;4835635;29;20025;-80
2021/05/01 05:50:21;;;;;;;3.65;2.08;;;;;;;6.68;63.89;101459.88;4854869;29;20029;-80
2021/05/01 05:52:47;;;;;;;3.28;1.80;;;;;;;6.95;63.47;101465.03;4849605;29;20049;-80
2021/05/01 05:55:14;;;;;;;5.43;1.50;;;;;;;7.16;63.16;101453.13;4853325;29;20037;-80
2021/05/01 05:57:41;;;;;;;1.92;1.50;;;;;;;7.33;63.26;101457.53;4854070;29;20069;-81
2021/05/01 06:00:07;;;;;;;3.35;1.45;;;;;;;7.38;63.55;101457.03;4860297;29;20122;-80
2021/05/01 06:02:34;;;;;;;2.30;1.20;;;;;;;7.41;63.34;101465.59;4837068;29;20461;-81
2021/05/01 06:05:26;;;;;;;4.68;1.10;;;;;;;7.64;62.72;101460.47;4842668;29;20034;-81
2021/05/01 06:08:05;;;;;;;3.70;1.10;;;;;;;7.95;61.99;101460.72;4854887;29;20025;-80
2021/05/01 06:10:31;;;;;;;2.90;1.17;;;;;;;8.24;60.96;101462.03;4846434;29;20026;-81
2021/05/01 06:13:00;;;;;;;3.20;1.20;;;;;;;8.45;60.82;101465.09;4819283;29;20030;-81
2021/05/01 06:15:25;;;;;;;1.50;1.08;;;;;;;8.73;60.13;101467.41;4849057;29;20037;-81
2021/05/01 06:17:53;;;;;;;2.83;1.00;;;;;;;8.84;59.09;101456.31;4838992;29;20015;-82
2021/05/01 06:20:19;;;;;;;3.30;1.00;;;;;;;8.96;59.69;101467.50;4867552;29;20070;-82
2021/05/01 06:22:48;;;;;;;2.35;1.27;;;;;;;8.94;59.60;101429.28;4858799;29;20537;-81
2021/05/01 06:25:13;;;;;;;1.98;1.20;;;;;;;9.27;59.23;101470.28;4839564;29;20060;-77
2021/05/01 06:27:39;;;;;;;1.20;1.10;;;;;;;9.49;59.53;101468.63;4813464;29;20033;-77
2021/05/01 06:30:08;;;;;;;2.17;1.20;;;;;;;9.26;58.77;101425.59;4829274;29;20057;-77
2021/05/01 06:32:34;;;;;;;1.75;1.10;;;;;;;9.51;58.50;101447.81;4826781;29;20094;-77
2021/05/01 06:35:01;;;;;;;2.78;1.17;;;;;;;9.83;58.45;101464.75;4827328;29;20029;-77
2021/05/01 06:37:28;;;;;;;1.48;1.10;;;;;;;9.80;57.76;101465.97;4845295;29;20052;-76
2021/05/01 06:40:02;;;;;;;2.83;1.30;;;;;;;9.93;57.89;101464.50;4826891;29;20040;-77
2021/05/01 06:42:34;;;;;;;2.35;1.33;;;;;;;10.03;56.86;101457.91;4826768;29;20081;-78
2021/05/01 06:45:07;;;;;;;1.70;1.00;;;;;;;10.10;56.66;101463.41;4831824;29;20461;-79
2021/05/01 06:47:54;;;;;;;1.17;0.90;;;;;;;9.90;55.43;101403.91;4842534;29;20041;-77
2021/05/01 06:50:27;;;;;;;2.60;0.80;;;;;;;10.36;52.80;101465.72;4827868;29;20540;-78
2021/05/01 06:52:59;;;;;;;1.63;0.93;;;;;;;10.46;51.16;101463.63;4825051;29;20141;-78
2021/05/01 06:55:31;;;;;;;2.40;0.77;;;;;;;10.54;50.47;101462.72;4810181;29;20110;-78
2021/05/01 06:58:00;;;;;;;2.35;0.98;;;;;;;10.35;50.26;101443.38;4818626;29;20506;-78
2021/05/01 07:00:29;;;;;;;1.85;0.82;;;;;;;10.53;50.16;101469.13;4812255;29;20042;-77
2021/05/01 07:03:19;;;;;;;2.78;0.90;;;;;;;10.57;50.41;101465.03;4828359;29;20041;-78
2021/05/01 07:05:48;;;;;;;0.88;0.70;;;;;;;10.73;50.83;101470.28;4842818;29;20022;-77
2021/05/01 07:08:13;;;;;;;1.38;0.90;;;;;;;10.78;48.53;101462.47;4825200;29;20029;-78
2021/05/01 07:10:39;;;;;;;1.85;0.82;;;;;;;10.90;48.81;101468.25;4828108;29;20182;-78
2021/05/01 07:13:05;;;;;;;2.00;0.80;;;;;;;10.60;48.38;101405.47;4827953;29;20030;-78
2021/05/01 07:15:30;;;;;;;1.40;0.88;;;;;;;10.54;48.23;101463.56;4828062;29;20703;-78
2021/05/01 07:17:56;;;;;;;0.90;0.77;;;;;;;10.69;48.87;101465.41;4828142;29;20079;-78
2021/05/01 07:20:22;;;;;;;2.33;0.95;;;;;;;10.79;48.75;101448.00;4812716;29;20476;-78
2021/05/01 07:22:53;;;;;;;1.65;0.70;;;;;;;10.69;49.25;101450.09;4844088;29;20663;-78
2021/05/01 07:25:18;;;;;;;1.20;0.80;;;;;;;10.31;48.72;101442.06;4828251;29;20025;-80
2021/05/01 07:28:06;;;;;;;2.13;0.90;;;;;;;10.07;48.39;101461.06;4833612;29;20048;-79
2021/05/01 07:30:39;;;;;;;2.17;1.08;;;;;;;9.71;50.52;101448.22;4823353;29;20481;-79
2021/05/01 07:33:17;;;;;;;2.22;0.90;;;;;;;9.64;51.32;101466.06;4836641;29;20026;-78
2021/05/01 07:35:46;;;;;;;2.58;0.90;;;;;;;9.48;52.26;101471.53;4838621;29;20150;-78
2021/05/01 07:38:12;;;;;;;4.88;1.00;;;;;;;9.25;53.44;101477.66;4805223;29;20026;-78
2021/05/01 07:40:40;;;;;;;2.55;1.02;;;;;;;9.07;54.69;101468.97;4821393;29;20041;-79
2021/05/01 07:43:07;;;;;;;3.00;1.00;;;;;;;8.99;56.60;101471.72;4802653;29;20472;-79
2021/05/01 07:45:34;;;;;;;2.10;1.10;;;;;;;8.90;56.23;101476.25;4818103;29;20038;-80
2021/05/01 07:48:03;;;;;;;2.60;1.50;;;;;;;8.75;57.58;101465.38;4834902;29;20037;-78
2021/05/01 07:50:28;;;;;;;1.90;1.13;;;;;;;8.71;58.78;101480.16;4824730;29;20128;-78
2021/05/01 07:52:55;;;;;;;1.88;1.40;;;;;;;8.71;59.25;101472.13;4789968;29;20477;-79
2021/05/01 07:55:22;;;;;;;1.38;1.00;;;;;;;8.83;59.50;101472.56;4835945;29;20515;-79
2021/05/01 07:57:49;;;;;;;1.58;1.13;;;;;;;8.76;59.45;101463.53;4819078;29;20030;-78
2021/05/01 08:00:23;;;;;;;2.28;1.02;;;;;;;8.85;59.52;101489.34;4820763;29;20036;-78
2021/05/01 08:02:49;;;;;;;1.75;1.10;;;;;;;8.91;57.18;101483.31;4824296;29;20494;-79
2021/05/01 08:05:17;;;;;;;1.92;0.90;;;;;;;8.90;55.92;101481.63;4819761;29;20034;-79
2021/05/01 08:07:43;;;;;;;0.88;0.40;;;;;;;9.05;48.94;101473.69;4804997;29;20034;-78
2021/05/01 08:10:09;;;;;;;0.40;0.30;;;;;;;9.16;42.71;101479.53;4832055;29;20418;-78
2021/05/01 08:12:35;;;;;;;1.50;0.40;;;;;;;8.92;41.86;101429.44;4815600;29;20038;-78
2021/05/01 08:15:01;;;;;;;0.80;0.40;;;;;;;9.09;43.00;101473.16;4819525;29;20048;-79
2021/05/01 08:17:26;;;;;;;0.80;0.50;;;;;;;9.22;42.92;101483.38;4833108;29;20030;-78
2021/05/01 08:19:53;;;;;;;0.75;0.40;;;;;;;9.21;41.86;101476.34;4802130;29;20361;-79
2021/05/01 08:22:19;;;;;;;1.60;0.55;;;;;;;9.26;40.56;101459.69;4831714;29;20059;-78
2021/05/01 08:24:45;;;;;;;1.05;0.57;;;;;;;9.05;40.05;101423.53;4833188;29;20042;-78
2021/05/01 08:27:12;;;;;;;0.65;0.55;;;;;;;9.14;41.17;101422.50;4802115;29;20037;-79
2021/05/01 08:29:38;;;;;;;1.02;0.50;;;;;;;9.51;41.30;101492.66;4829669;29;20034;-79
2021/05/01 08:32:04;;;;;;;1.30;0.50;;;;;;;9.54;42.50;101493.16;4834222;29;20137;-79
2021/05/01 08:34:29;;;;;;;2.65;0.70;;;;;;;9.67;45.11;101503.31;4817889;29;20680;-78
2021/05/01 08:36:56;;;;;;;0.88;0.45;;;;;;;9.72;43.64;101476.75;4835184;29;20041;-78
2021/05/01 08:39:21;;;;;;;2.83;0.73;;;;;;;9.99;42.88;101474.56;4816381;29;20029;-78
2021/05/01 08:41:47;;;;;;;1.15;0.45;;;;;;;10.50;42.06;101512.53;4817854;29;20062;-78
2021/05/01 08:44:18;;;;;;;2.13;0.80;;;;;;;10.18;44.49;101473.25;4839336;29;20029;-83
2021/05/01 08:46:47;;;;;;;1.88;0.70;;;;;;;10.28;43.41;101490.84;4821038;29;20667;-78
2021/05/01 08:49:12;;;;;;;3.35;0.88;;;;;;;10.35;44.61;101499.84;4816812;29;20491;-79
2021/05/01 08:51:41;;;;;;;1.10;0.80;;;;;;;10.41;45.12;101500.16;4825130;29;20026;-78
2021/05/01 08:54:08;;;;;;;1.52;0.90;;;;;;;10.14;45.94;101466.56;4826802;29;20041;-79
2021/05/01 08:56:33;;;;;;;2.05;1.00;;;;;;;10.46;45.81;101497.75;4858797;29;20045;-78
2021/05/01 08:59:00;;;;;;;1.20;0.80;;;;;;;10.44;45.99;101497.13;4843337;29;20038;-78
2021/05/01 09:01:27;;;;;;;2.80;1.08;;;;;;;10.45;46.60;101496.09;4844687;29;20082;-78
2021/05/01 09:03:54;;;;;;;1.10;0.70;;;;;;;10.26;46.91;101498.25;4848314;29;20090;-78
2021/05/01 09:06:23;;;;;;;1.30;1.00;;;;;;;10.10;47.01;101487.59;4845383;29;20377;-78
2021/05/01 09:08:57;;;;;;;2.30;0.90;;;;;;;10.02;48.29;101485.78;4832414;29;20022;-79
2021/05/01 09:11:39;;;;;;;1.73;0.85;;;;;;;9.98;48.20;101491.72;4843915;29;20031;-78
2021/05/01 09:14:14;;;;;;;1.52;0.80;;;;;;;10.06;47.71;101495.16;4843493;29;20030;-78
2021/05/01 09:16:40;;;;;;;1.17;0.88;;;;;;;10.04;47.84;101493.69;4825281;29;20053;-79
2021/05/01 09:19:06;;;;;;;1.65;0.95;;;;;;;10.12;47.52;101496.31;4829152;29;20040;-78
2021/05/01 09:21:31;;;;;;;1.23;0.60;;;;;;;10.00;47.70;101498.59;4834175;29;20029;-78
2021/05/01 09:23:58;;;;;;;1.45;0.80;;;;;;;9.92;46.07;101473.59;4846178;29;20038;-78
2021/05/01 09:26:43;;;;;;;1.58;0.70;;;;;;;10.06;46.78;101481.72;4833724;29;20117;-78
2021/05/01 09:29:09;;;;;;;1.85;0.70;;;;;;;9.97;45.84;101460.47;4826728;29;20097;-78
2021/05/01 09:31:42;;;;;;;3.13;0.70;;;;;;;10.25;46.78;101501.09;4836498;29;20072;-78
2021/05/01 09:34:07;;;;;;;1.90;0.88;;;;;;;10.21;46.49;101497.94;4829941;29;20045;-78
2021/05/01 09:36:33;;;;;;;2.03;0.82;;;;;;;10.27;46.39;101499.94;4797997;29;20394;-78
2021/05/01 09:39:00;;;;;;;1.48;0.80;;;;;;;10.21;46.44;101500.63;4845230;29;20053;-78
2021/05/01 09:41:34;;;;;;;2.50;0.90;;;;;;;10.04;45.23;101496.38;4827590;29;20179;-78
2021/05/01 09:44:02;;;;;;;1.33;0.90;;;;;;;9.94;47.39;101495.78;4842102;29;20092;-78
2021/05/01 09:46:29;;;;;;;1.52;0.90;;;;;;;9.88;47.79;101510.75;4828641;29;20130;-77
2021/05/01 09:49:08;;;;;;;1.70;0.90;;;;;;;10.11;46.14;101498.16;4828445;29;20048;-78
2021/05/01 09:52:03;;;;;;;1.27;0.80;;;;;;;10.05;47.17;101501.56;4845705;29;20021;-78
2021/05/01 09:54:33;;;;;;;2.17;1.13;;;;;;;9.88;48.25;101459.69;4837277;29;20102;-78
2021/05/01 09:57:07;;;;;;;2.33;1.15;;;;;;;9.71;48.23;101477.78;4841554;29;20022;-78
2021/05/01 09:59:45;;;;;;;1.15;1.00;;;;;;;9.73;47.85;101502.59;4843716;29;20030;-78
2021/05/01 10:02:18;;;;;;;3.88;1.15;;;;;;;9.83;49.92;101497.88;4844266;29;20026;-78
2021/05/01 10:05:04;;;;;;;4.47;1.27;;;;;;;9.87;50.13;101498.34;4833807;29;20030;-79
2021/05/01 10:07:31;;;;;;;5.10;1.45;;;;;;;9.95;50.69;101490.22;4835729;29;20603;-78
2021/05/01 10:09:58;;;;;;;3.22;1.65;;;;;;;10.21;50.71;101484.47;4836312;29;20070;-78
2021/05/01 10:12:38;;;;;;;3.58;1.55;;;;;;;9.89;52.53;101480.16;4845570;29;20112;-79
2021/05/01 10:15:27;;;;;;;2.05;1.20;;;;;;;9.70;52.57;101473.41;4841331;29;20062;-78
2021/05/01 10:17:53;;;;;;;3.65;1.45;;;;;;;9.87;52.32;101493.81;4812459;29;20590;-77
2021/05/01 10:20:19;;;;;;;2.60;1.20;;;;;;;9.81;53.19;101486.44;4795882;29;20075;-78
2021/05/01 10:22:52;;;;;;;1.30;1.10;;;;;;;10.01;52.10;101494.06;4844319;29;20026;-78
2021/05/01 10:25:17;;;;;;;1.50;0.82;;;;;;;10.20;49.79;101498.09;4845767;29;20037;-79
2021/05/01 10:27:46;;;;;;;2.30;1.35;;;;;;;10.22;50.66;101474.56;4845215;29;20034;-79
2021/05/01 10:30:32;;;;;;;3.53;1.88;;;;;;;10.26;51.90;101490.16;4844196;29;20029;-78
2021/05/01 10:36:22;;;;;;;1.55;1.23;;;;;;;10.24;51.04;101494.06;4845630;29;20034;-78
2021/05/01 10:39:06;;;;;;;2.40;1.63;;;;;;;10.07;52.15;101487.97;4844473;29;20030;-80
2021/05/01 10:41:35;;;;;;;2.28;1.50;;;;;;;10.01;52.25;101489.50;4845463;29;20073;-77
2021/05/01 10:44:02;;;;;;;2.80;1.35;;;;;;;9.83;51.33;101480.88;4843465;29;20034;-77
2021/05/01 10:46:38;;;;;;;3.63;1.50;;;;;;;9.69;51.45;101458.28;4828039;29;20077;-77
2021/05/01 10:49:06;;;;;;;2.60;1.70;;;;;;;9.74;52.72;101463.97;4823522;29;20046;-78
2021/05/01 10:51:46;;;;;;;2.28;1.58;;;;;;;9.67;53.25;101481.84;4830262;29;20428;-77
2021/05/01 10:54:16;;;;;;;2.60;1.40;;;;;;;9.76;53.45;101491.50;4843150;29;20034;-77
2021/05/01 10:56:53;;;;;;;2.33;1.10;;;;;;;9.78;52.02;101492.16;4844419;29;20657;-77
2021/05/01 10:59:21;;;;;;;1.52;1.40;;;;;;;9.97;51.09;101487.38;4828254;29;20042;-78
2021/05/01 11:01:49;;;;;;;1.33;1.20;;;;;;;9.73;52.33;101459.59;4827656;29;20105;-76
2021/05/01 11:04:25;;;;;;;1.55;1.10;;;;;;;9.75;53.00;101449.53;4841280;29;20647;-78
2021/05/01 11:06:58;;;;;;;2.25;1.52;;;;;;;9.92;52.18;101471.75;4822556;29;20129;-78
2021/05/01 11:09:42;;;;;;;2.00;1.08;;;;;;;10.06;52.06;101491.66;4842005;29;20105;-77
2021/05/01 11:12:10;;;;;;;3.60;1.15;;;;;;;10.11;52.01;101486.59;4842923;29;20026;-77
2021/05/01 11:14:45;;;;;;;4.03;1.27;;;;;;;10.13;52.38;101487.22;4844750;29;20468;-75
2021/05/01 11:17:32;;;;;;;2.20;1.10;;;;;;;10.02;52.98;101487.66;4844878;29;20029;-80
2021/05/01 11:20:11;;;;;;;2.15;1.20;;;;;;;10.01;53.34;101491.38;4814800;29;20050;-79
2021/05/01 11:22:40;;;;;;;1.27;0.80;;;;;;;10.16;53.21;101492.25;4819440;29;20422;-77
2021/05/01 11:25:09;;;;;;;2.08;1.30;;;;;;;10.14;53.40;101424.38;4824923;29;20368;-78
2021/05/01 11:27:39;;;;;;;2.50;1.20;;;;;;;10.83;51.73;101491.53;4827327;29;20049;-78
2021/05/01 11:30:07;;;;;;;2.10;1.42;;;;;;;10.84;51.07;101468.97;4828308;29;20034;-78
2021/05/01 11:32:34;;;;;;;2.60;1.30;;;;;;;10.81;51.96;101480.09;4827296;29;20077;-78
2021/05/01 11:35:03;;;;;;;1.45;0.95;;;;;;;10.51;50.66;101495.38;4833747;29;20040;-78
2021/05/01 11:37:31;;;;;;;3.08;1.20;;;;;;;10.31;51.48;101490.47;4826174;29;20041;-78
2021/05/01 11:40:01;;;;;;;3.05;1.40;;;;;;;10.20;52.21;101480.13;4808951;29;20113;-77